sensor_id;sensor_type;location;lat;lon;timestamp;P1;durP1;ratioP1;P2;durP2;ratioP2
23802;SDS011;12082;51.786;6.018;2023-05-10T00:01:33;133.80;;;45.13;;
23802;SDS011;12082;51.786;6.018;2023-05-10T00:03:59;131.40;;;44.33;;
23802;SDS011;12082;51.786;6.018;2023-05-10T00:06:24;121.23;;;46.33;;
23802;SDS011;12082;51.786;6.018;2023-05-10T00:08:50;144.73;;;49.33;;
23802;SDS011;12082;51.786;6.018;2023-05-10T00:11:16;161.43;;;51.20;;
23802;SDS011;12082;51.786;6.018;2023-05-10T00:13:41;142.37;;;55.23;;
23802;SDS011;12082;51.786;6.018;2023-05-10T00:16:07;174.33;;;56.33;;
23802;SDS011;12082;51.786;6.018;2023-05-10T00:18:32;177.30;;;55.60;;
23802;SDS011;12082;51.786;6.018;2023-05-10T00:20:58;179.07;;;56.73;;
23802;SDS011;12082;51.786;6.018;2023-05-10T00:23:23;176.30;;;60.87;;
23802;SDS011;12082;51.786;6.018;2023-05-10T00:25:49;181.37;;;56.90;;
23802;SDS011;12082;51.786;6.018;2023-05-10T00:28:15;197.30;;;61.30;;
23802;SDS011;12082;51.786;6.018;2023-05-10T00:30:40;173.40;;;59.73;;
23802;SDS011;12082;51.786;6.018;2023-05-10T00:33:06;193.30;;;62.07;;
23802;SDS011;12082;51.786;6.018;2023-05-10T00:35:31;180.23;;;62.10;;
23802;SDS011;12082;51.786;6.018;2023-05-10T00:37:57;179.87;;;61.33;;
23802;SDS011;12082;51.786;6.018;2023-05-10T00:40:23;191.43;;;61.33;;
23802;SDS011;12082;51.786;6.018;2023-05-10T00:42:48;156.47;;;57.47;;
23802;SDS011;12082;51.786;6.018;2023-05-10T00:45:14;195.20;;;62.87;;
23802;SDS011;12082;51.786;6.018;2023-05-10T00:47:39;191.53;;;62.30;;
23802;SDS011;12082;51.786;6.018;2023-05-10T00:50:05;172.27;;;61.70;;
23802;SDS011;12082;51.786;6.018;2023-05-10T00:52:31;195.50;;;64.07;;
23802;SDS011;12082;51.786;6.018;2023-05-10T00:54:57;198.93;;;62.40;;
23802;SDS011;12082;51.786;6.018;2023-05-10T00:57:23;207.00;;;64.40;;
23802;SDS011;12082;51.786;6.018;2023-05-10T00:59:49;168.73;;;60.87;;
23802;SDS011;12082;51.786;6.018;2023-05-10T01:02:15;202.60;;;67.20;;
23802;SDS011;12082;51.786;6.018;2023-05-10T01:04:41;167.33;;;61.93;;
23802;SDS011;12082;51.786;6.018;2023-05-10T01:07:08;196.03;;;62.63;;
23802;SDS011;12082;51.786;6.018;2023-05-10T01:09:33;159.30;;;61.17;;
23802;SDS011;12082;51.786;6.018;2023-05-10T01:11:59;173.10;;;58.67;;
23802;SDS011;12082;51.786;6.018;2023-05-10T01:14:26;168.00;;;57.73;;
23802;SDS011;12082;51.786;6.018;2023-05-10T01:16:52;182.83;;;58.87;;
23802;SDS011;12082;51.786;6.018;2023-05-10T01:19:19;178.73;;;57.70;;
23802;SDS011;12082;51.786;6.018;2023-05-10T01:30:28;199.87;;;60.67;;
23802;SDS011;12082;51.786;6.018;2023-05-10T01:33:00;169.03;;;57.77;;
23802;SDS011;12082;51.786;6.018;2023-05-10T01:43:28;163.90;;;54.73;;
23802;SDS011;12082;51.786;6.018;2023-05-10T01:45:59;201.13;;;56.43;;
23802;SDS011;12082;51.786;6.018;2023-05-10T01:48:35;196.77;;;58.07;;
23802;SDS011;12082;51.786;6.018;2023-05-10T01:51:11;184.30;;;55.77;;
23802;SDS011;12082;51.786;6.018;2023-05-10T01:53:37;208.77;;;58.40;;
23802;SDS011;12082;51.786;6.018;2023-05-10T01:56:05;192.17;;;60.20;;
23802;SDS011;12082;51.786;6.018;2023-05-10T01:58:32;223.93;;;63.10;;
23802;SDS011;12082;51.786;6.018;2023-05-10T02:01:01;220.30;;;63.93;;
23802;SDS011;12082;51.786;6.018;2023-05-10T02:03:29;228.37;;;58.67;;
23802;SDS011;12082;51.786;6.018;2023-05-10T02:05:57;200.57;;;61.23;;
23802;SDS011;12082;51.786;6.018;2023-05-10T02:08:22;203.70;;;63.00;;
23802;SDS011;12082;51.786;6.018;2023-05-10T02:10:50;186.13;;;61.33;;
23802;SDS011;12082;51.786;6.018;2023-05-10T02:13:18;228.70;;;63.70;;
23802;SDS011;12082;51.786;6.018;2023-05-10T02:15:45;231.53;;;65.93;;
23802;SDS011;12082;51.786;6.018;2023-05-10T02:18:13;202.43;;;63.47;;
23802;SDS011;12082;51.786;6.018;2023-05-10T02:20:40;206.40;;;64.30;;
23802;SDS011;12082;51.786;6.018;2023-05-10T02:23:08;232.83;;;65.93;;
23802;SDS011;12082;51.786;6.018;2023-05-10T02:25:34;204.77;;;65.20;;
23802;SDS011;12082;51.786;6.018;2023-05-10T02:28:01;204.53;;;61.67;;
23802;SDS011;12082;51.786;6.018;2023-05-10T02:30:30;205.53;;;63.43;;
23802;SDS011;12082;51.786;6.018;2023-05-10T02:32:57;202.03;;;64.83;;
23802;SDS011;12082;51.786;6.018;2023-05-10T02:35:23;244.83;;;68.20;;
23802;SDS011;12082;51.786;6.018;2023-05-10T02:37:51;214.73;;;67.87;;
23802;SDS011;12082;51.786;6.018;2023-05-10T02:40:18;232.87;;;68.80;;
23802;SDS011;12082;51.786;6.018;2023-05-10T02:42:46;207.07;;;66.27;;
23802;SDS011;12082;51.786;6.018;2023-05-10T02:45:17;226.77;;;67.93;;
23802;SDS011;12082;51.786;6.018;2023-05-10T02:47:48;223.67;;;64.60;;
23802;SDS011;12082;51.786;6.018;2023-05-10T02:50:14;207.43;;;66.73;;
23802;SDS011;12082;51.786;6.018;2023-05-10T02:52:40;202.03;;;64.00;;
23802;SDS011;12082;51.786;6.018;2023-05-10T02:55:11;216.10;;;65.60;;
23802;SDS011;12082;51.786;6.018;2023-05-10T02:57:40;225.10;;;66.77;;
23802;SDS011;12082;51.786;6.018;2023-05-10T03:00:33;225.83;;;64.97;;
23802;SDS011;12082;51.786;6.018;2023-05-10T03:02:58;201.13;;;59.57;;
23802;SDS011;12082;51.786;6.018;2023-05-10T03:05:25;216.37;;;62.67;;
23802;SDS011;12082;51.786;6.018;2023-05-10T03:07:51;234.73;;;63.43;;
23802;SDS011;12082;51.786;6.018;2023-05-10T03:10:17;223.37;;;59.13;;
23802;SDS011;12082;51.786;6.018;2023-05-10T03:16:02;237.70;;;57.97;;
23802;SDS011;12082;51.786;6.018;2023-05-10T03:18:42;208.97;;;58.23;;
23802;SDS011;12082;51.786;6.018;2023-05-10T03:21:12;227.93;;;60.53;;
23802;SDS011;12082;51.786;6.018;2023-05-10T03:23:43;228.57;;;58.97;;
23802;SDS011;12082;51.786;6.018;2023-05-10T03:26:17;243.33;;;60.57;;
23802;SDS011;12082;51.786;6.018;2023-05-10T03:28:46;240.37;;;61.37;;
23802;SDS011;12082;51.786;6.018;2023-05-10T03:31:13;227.87;;;60.13;;
23802;SDS011;12082;51.786;6.018;2023-05-10T03:33:49;232.80;;;59.63;;
23802;SDS011;12082;51.786;6.018;2023-05-10T03:36:15;218.57;;;57.30;;
23802;SDS011;12082;51.786;6.018;2023-05-10T03:38:41;228.77;;;59.47;;
23802;SDS011;12082;51.786;6.018;2023-05-10T03:41:07;234.10;;;60.70;;
23802;SDS011;12082;51.786;6.018;2023-05-10T03:43:32;213.50;;;58.47;;
23802;SDS011;12082;51.786;6.018;2023-05-10T03:45:58;235.07;;;60.67;;
23802;SDS011;12082;51.786;6.018;2023-05-10T03:48:26;242.33;;;63.33;;
23802;SDS011;12082;51.786;6.018;2023-05-10T03:50:51;255.73;;;63.57;;
23802;SDS011;12082;51.786;6.018;2023-05-10T03:53:17;251.87;;;64.53;;
23802;SDS011;12082;51.786;6.018;2023-05-10T03:55:42;254.47;;;66.50;;
23802;SDS011;12082;51.786;6.018;2023-05-10T03:58:10;279.43;;;67.17;;
23802;SDS011;12082;51.786;6.018;2023-05-10T04:00:36;250.67;;;68.80;;
23802;SDS011;12082;51.786;6.018;2023-05-10T04:03:02;258.50;;;65.47;;
23802;SDS011;12082;51.786;6.018;2023-05-10T04:05:27;290.53;;;71.03;;
23802;SDS011;12082;51.786;6.018;2023-05-10T04:07:53;253.43;;;66.90;;
23802;SDS011;12082;51.786;6.018;2023-05-10T04:10:18;281.97;;;67.00;;
23802;SDS011;12082;51.786;6.018;2023-05-10T04:12:44;282.73;;;67.07;;
23802;SDS011;12082;51.786;6.018;2023-05-10T04:15:09;256.80;;;67.93;;
23802;SDS011;12082;51.786;6.018;2023-05-10T04:17:35;249.10;;;68.20;;
23802;SDS011;12082;51.786;6.018;2023-05-10T04:20:01;232.87;;;63.47;;
23802;SDS011;12082;51.786;6.018;2023-05-10T04:22:26;273.43;;;65.93;;
23802;SDS011;12082;51.786;6.018;2023-05-10T04:24:53;242.80;;;62.30;;
23802;SDS011;12082;51.786;6.018;2023-05-10T04:27:19;263.23;;;64.77;;
23802;SDS011;12082;51.786;6.018;2023-05-10T04:29:45;266.20;;;66.17;;
23802;SDS011;12082;51.786;6.018;2023-05-10T04:32:10;282.97;;;66.47;;
23802;SDS011;12082;51.786;6.018;2023-05-10T04:34:36;291.23;;;65.33;;
23802;SDS011;12082;51.786;6.018;2023-05-10T04:37:02;274.70;;;66.30;;
23802;SDS011;12082;51.786;6.018;2023-05-10T04:39:27;262.10;;;65.47;;
23802;SDS011;12082;51.786;6.018;2023-05-10T04:41:53;232.73;;;61.70;;
23802;SDS011;12082;51.786;6.018;2023-05-10T04:44:18;276.87;;;63.73;;
23802;SDS011;12082;51.786;6.018;2023-05-10T04:46:44;259.07;;;64.50;;
23802;SDS011;12082;51.786;6.018;2023-05-10T04:49:10;197.33;;;58.87;;
23802;SDS011;12082;51.786;6.018;2023-05-10T04:51:35;280.53;;;67.17;;
23802;SDS011;12082;51.786;6.018;2023-05-10T04:54:01;259.23;;;64.43;;
23802;SDS011;12082;51.786;6.018;2023-05-10T04:56:26;260.50;;;61.57;;
23802;SDS011;12082;51.786;6.018;2023-05-10T04:58:52;228.07;;;62.80;;
23802;SDS011;12082;51.786;6.018;2023-05-10T05:01:17;235.23;;;63.67;;
23802;SDS011;12082;51.786;6.018;2023-05-10T05:03:43;243.33;;;63.27;;
23802;SDS011;12082;51.786;6.018;2023-05-10T05:06:08;247.40;;;60.40;;
23802;SDS011;12082;51.786;6.018;2023-05-10T05:08:34;217.60;;;60.77;;
23802;SDS011;12082;51.786;6.018;2023-05-10T05:10:59;218.00;;;60.07;;
23802;SDS011;12082;51.786;6.018;2023-05-10T05:13:25;200.47;;;60.90;;
23802;SDS011;12082;51.786;6.018;2023-05-10T05:15:51;248.20;;;63.10;;
23802;SDS011;12082;51.786;6.018;2023-05-10T05:18:16;216.33;;;59.23;;
23802;SDS011;12082;51.786;6.018;2023-05-10T05:20:42;229.27;;;60.40;;
23802;SDS011;12082;51.786;6.018;2023-05-10T05:23:07;214.27;;;58.37;;
23802;SDS011;12082;51.786;6.018;2023-05-10T05:25:33;222.57;;;60.97;;
23802;SDS011;12082;51.786;6.018;2023-05-10T05:27:58;241.83;;;61.33;;
23802;SDS011;12082;51.786;6.018;2023-05-10T05:30:24;198.77;;;58.00;;
23802;SDS011;12082;51.786;6.018;2023-05-10T05:32:50;217.50;;;60.33;;
23802;SDS011;12082;51.786;6.018;2023-05-10T05:35:16;209.27;;;58.53;;
23802;SDS011;12082;51.786;6.018;2023-05-10T05:37:41;207.77;;;59.80;;
23802;SDS011;12082;51.786;6.018;2023-05-10T05:40:07;237.97;;;61.47;;
23802;SDS011;12082;51.786;6.018;2023-05-10T05:42:33;191.30;;;56.60;;
23802;SDS011;12082;51.786;6.018;2023-05-10T05:44:58;230.93;;;65.03;;
23802;SDS011;12082;51.786;6.018;2023-05-10T05:47:24;245.90;;;61.50;;
23802;SDS011;12082;51.786;6.018;2023-05-10T05:49:50;231.23;;;63.17;;
23802;SDS011;12082;51.786;6.018;2023-05-10T05:52:15;230.73;;;60.97;;
23802;SDS011;12082;51.786;6.018;2023-05-10T05:54:41;226.00;;;60.03;;
23802;SDS011;12082;51.786;6.018;2023-05-10T05:57:07;240.20;;;60.10;;
23802;SDS011;12082;51.786;6.018;2023-05-10T05:59:32;234.13;;;63.07;;
23802;SDS011;12082;51.786;6.018;2023-05-10T06:01:58;238.83;;;60.17;;
23802;SDS011;12082;51.786;6.018;2023-05-10T06:04:23;245.70;;;62.97;;
23802;SDS011;12082;51.786;6.018;2023-05-10T06:06:49;237.03;;;62.77;;
23802;SDS011;12082;51.786;6.018;2023-05-10T06:09:14;235.33;;;63.03;;
23802;SDS011;12082;51.786;6.018;2023-05-10T06:11:40;213.30;;;60.83;;
23802;SDS011;12082;51.786;6.018;2023-05-10T06:14:06;228.63;;;62.93;;
23802;SDS011;12082;51.786;6.018;2023-05-10T06:16:32;214.00;;;62.10;;
23802;SDS011;12082;51.786;6.018;2023-05-10T06:18:59;249.73;;;65.73;;
23802;SDS011;12082;51.786;6.018;2023-05-10T06:21:24;226.60;;;63.50;;
23802;SDS011;12082;51.786;6.018;2023-05-10T06:23:50;234.83;;;62.83;;
23802;SDS011;12082;51.786;6.018;2023-05-10T06:26:16;222.80;;;60.47;;
23802;SDS011;12082;51.786;6.018;2023-05-10T06:28:41;210.17;;;60.63;;
23802;SDS011;12082;51.786;6.018;2023-05-10T06:31:07;238.40;;;60.73;;
23802;SDS011;12082;51.786;6.018;2023-05-10T06:33:33;188.30;;;57.23;;
23802;SDS011;12082;51.786;6.018;2023-05-10T06:35:58;184.77;;;57.37;;
23802;SDS011;12082;51.786;6.018;2023-05-10T06:38:24;197.90;;;57.57;;
23802;SDS011;12082;51.786;6.018;2023-05-10T06:40:50;183.40;;;55.60;;
23802;SDS011;12082;51.786;6.018;2023-05-10T06:43:15;197.93;;;56.30;;
23802;SDS011;12082;51.786;6.018;2023-05-10T06:45:41;170.67;;;52.83;;
23802;SDS011;12082;51.786;6.018;2023-05-10T06:48:07;199.80;;;55.20;;
23802;SDS011;12082;51.786;6.018;2023-05-10T06:50:32;195.17;;;55.73;;
23802;SDS011;12082;51.786;6.018;2023-05-10T06:52:58;195.90;;;56.47;;
23802;SDS011;12082;51.786;6.018;2023-05-10T06:55:24;205.37;;;55.77;;
23802;SDS011;12082;51.786;6.018;2023-05-10T06:57:50;200.27;;;58.00;;
23802;SDS011;12082;51.786;6.018;2023-05-10T07:00:16;209.27;;;58.17;;
23802;SDS011;12082;51.786;6.018;2023-05-10T07:02:42;206.27;;;59.50;;
23802;SDS011;12082;51.786;6.018;2023-05-10T07:05:08;208.60;;;60.13;;
23802;SDS011;12082;51.786;6.018;2023-05-10T07:07:34;191.07;;;55.20;;
23802;SDS011;12082;51.786;6.018;2023-05-10T07:10:00;188.17;;;55.10;;
23802;SDS011;12082;51.786;6.018;2023-05-10T07:12:25;202.73;;;56.00;;
23802;SDS011;12082;51.786;6.018;2023-05-10T07:14:51;199.67;;;54.43;;
23802;SDS011;12082;51.786;6.018;2023-05-10T07:17:17;177.63;;;53.30;;
23802;SDS011;12082;51.786;6.018;2023-05-10T07:19:42;186.10;;;54.70;;
23802;SDS011;12082;51.786;6.018;2023-05-10T07:22:08;189.43;;;56.20;;
23802;SDS011;12082;51.786;6.018;2023-05-10T07:24:34;192.50;;;54.37;;
23802;SDS011;12082;51.786;6.018;2023-05-10T07:27:00;191.50;;;56.90;;
23802;SDS011;12082;51.786;6.018;2023-05-10T07:29:25;181.87;;;52.90;;
23802;SDS011;12082;51.786;6.018;2023-05-10T07:31:51;188.17;;;51.77;;
23802;SDS011;12082;51.786;6.018;2023-05-10T07:34:17;183.07;;;53.43;;
23802;SDS011;12082;51.786;6.018;2023-05-10T07:36:42;177.77;;;52.10;;
23802;SDS011;12082;51.786;6.018;2023-05-10T07:39:08;188.80;;;53.33;;
23802;SDS011;12082;51.786;6.018;2023-05-10T07:41:33;177.67;;;51.00;;
23802;SDS011;12082;51.786;6.018;2023-05-10T07:43:59;186.03;;;51.97;;
23802;SDS011;12082;51.786;6.018;2023-05-10T07:46:25;180.27;;;50.57;;
23802;SDS011;12082;51.786;6.018;2023-05-10T07:48:50;179.67;;;52.97;;
23802;SDS011;12082;51.786;6.018;2023-05-10T07:51:16;165.20;;;52.50;;
23802;SDS011;12082;51.786;6.018;2023-05-10T07:53:41;173.53;;;50.80;;
23802;SDS011;12082;51.786;6.018;2023-05-10T07:58:50;165.03;;;52.37;;
23802;SDS011;12082;51.786;6.018;2023-05-10T08:01:16;167.53;;;51.73;;
23802;SDS011;12082;51.786;6.018;2023-05-10T08:03:42;168.40;;;52.67;;
23802;SDS011;12082;51.786;6.018;2023-05-10T08:06:07;164.43;;;52.73;;
23802;SDS011;12082;51.786;6.018;2023-05-10T08:08:33;175.57;;;52.77;;
23802;SDS011;12082;51.786;6.018;2023-05-10T08:10:58;166.13;;;53.60;;
23802;SDS011;12082;51.786;6.018;2023-05-10T08:13:24;178.03;;;54.10;;
23802;SDS011;12082;51.786;6.018;2023-05-10T08:15:49;175.57;;;54.47;;
23802;SDS011;12082;51.786;6.018;2023-05-10T08:18:17;166.03;;;52.90;;
23802;SDS011;12082;51.786;6.018;2023-05-10T08:20:43;153.43;;;50.53;;
23802;SDS011;12082;51.786;6.018;2023-05-10T08:23:09;164.07;;;54.53;;
23802;SDS011;12082;51.786;6.018;2023-05-10T08:25:35;163.30;;;53.47;;
23802;SDS011;12082;51.786;6.018;2023-05-10T08:28:00;154.70;;;53.97;;
23802;SDS011;12082;51.786;6.018;2023-05-10T08:30:26;175.43;;;52.57;;
23802;SDS011;12082;51.786;6.018;2023-05-10T08:32:51;167.63;;;52.93;;
23802;SDS011;12082;51.786;6.018;2023-05-10T08:35:17;162.00;;;51.27;;
23802;SDS011;12082;51.786;6.018;2023-05-10T08:37:42;160.73;;;52.27;;
23802;SDS011;12082;51.786;6.018;2023-05-10T08:40:08;155.73;;;52.60;;
23802;SDS011;12082;51.786;6.018;2023-05-10T08:42:36;156.40;;;51.47;;
23802;SDS011;12082;51.786;6.018;2023-05-10T08:45:06;165.67;;;56.13;;
23802;SDS011;12082;51.786;6.018;2023-05-10T08:47:33;149.93;;;52.07;;
23802;SDS011;12082;51.786;6.018;2023-05-10T08:50:01;146.03;;;52.30;;
23802;SDS011;12082;51.786;6.018;2023-05-10T08:52:28;165.30;;;56.10;;
23802;SDS011;12082;51.786;6.018;2023-05-10T08:54:55;151.30;;;53.87;;
23802;SDS011;12082;51.786;6.018;2023-05-10T08:57:21;152.30;;;54.53;;
23802;SDS011;12082;51.786;6.018;2023-05-10T08:59:47;147.87;;;54.87;;
23802;SDS011;12082;51.786;6.018;2023-05-10T09:02:13;147.87;;;55.50;;
23802;SDS011;12082;51.786;6.018;2023-05-10T09:04:39;143.30;;;55.43;;
23802;SDS011;12082;51.786;6.018;2023-05-10T09:07:05;142.03;;;54.70;;
23802;SDS011;12082;51.786;6.018;2023-05-10T09:09:32;129.37;;;54.63;;
23802;SDS011;12082;51.786;6.018;2023-05-10T09:11:58;130.07;;;53.00;;
23802;SDS011;12082;51.786;6.018;2023-05-10T09:14:24;122.87;;;54.80;;
23802;SDS011;12082;51.786;6.018;2023-05-10T09:16:50;124.10;;;54.77;;
23802;SDS011;12082;51.786;6.018;2023-05-10T09:19:16;121.07;;;52.50;;
23802;SDS011;12082;51.786;6.018;2023-05-10T09:21:42;124.00;;;56.03;;
23802;SDS011;12082;51.786;6.018;2023-05-10T09:24:08;119.50;;;58.37;;
23802;SDS011;12082;51.786;6.018;2023-05-10T09:26:34;127.03;;;56.90;;
23802;SDS011;12082;51.786;6.018;2023-05-10T09:29:01;118.57;;;52.57;;
23802;SDS011;12082;51.786;6.018;2023-05-10T09:34:16;107.20;;;56.57;;
23802;SDS011;12082;51.786;6.018;2023-05-10T09:36:55;109.47;;;56.67;;
23802;SDS011;12082;51.786;6.018;2023-05-10T09:39:32;110.50;;;55.77;;
23802;SDS011;12082;51.786;6.018;2023-05-10T09:42:02;107.83;;;55.83;;
23802;SDS011;12082;51.786;6.018;2023-05-10T09:44:33;100.97;;;54.43;;
23802;SDS011;12082;51.786;6.018;2023-05-10T09:46:59;91.03;;;53.37;;
23802;SDS011;12082;51.786;6.018;2023-05-10T09:49:28;99.40;;;50.27;;
23802;SDS011;12082;51.786;6.018;2023-05-10T09:51:59;96.10;;;51.40;;
23802;SDS011;12082;51.786;6.018;2023-05-10T09:54:32;81.33;;;48.43;;
23802;SDS011;12082;51.786;6.018;2023-05-10T09:56:59;77.60;;;48.73;;
23802;SDS011;12082;51.786;6.018;2023-05-10T09:59:25;73.20;;;46.30;;
23802;SDS011;12082;51.786;6.018;2023-05-10T10:01:59;71.07;;;48.17;;
23802;SDS011;12082;51.786;6.018;2023-05-10T10:04:25;71.60;;;47.90;;
23802;SDS011;12082;51.786;6.018;2023-05-10T10:07:00;69.03;;;48.43;;
23802;SDS011;12082;51.786;6.018;2023-05-10T10:09:29;74.47;;;49.63;;
23802;SDS011;12082;51.786;6.018;2023-05-10T10:11:55;73.87;;;49.40;;
23802;SDS011;12082;51.786;6.018;2023-05-10T10:14:22;82.10;;;51.77;;
23802;SDS011;12082;51.786;6.018;2023-05-10T10:16:49;72.60;;;49.10;;
23802;SDS011;12082;51.786;6.018;2023-05-10T10:19:15;62.43;;;46.47;;
23802;SDS011;12082;51.786;6.018;2023-05-10T10:21:43;73.93;;;49.03;;
23802;SDS011;12082;51.786;6.018;2023-05-10T10:24:08;74.90;;;50.80;;
23802;SDS011;12082;51.786;6.018;2023-05-10T10:26:34;76.90;;;49.27;;
23802;SDS011;12082;51.786;6.018;2023-05-10T10:31:36;65.43;;;47.20;;
23802;SDS011;12082;51.786;6.018;2023-05-10T10:34:07;73.70;;;47.53;;
23802;SDS011;12082;51.786;6.018;2023-05-10T10:36:42;68.53;;;46.77;;
23802;SDS011;12082;51.786;6.018;2023-05-10T10:39:11;68.13;;;49.83;;
23802;SDS011;12082;51.786;6.018;2023-05-10T10:41:39;77.20;;;48.47;;
23802;SDS011;12082;51.786;6.018;2023-05-10T10:49:50;67.83;;;49.03;;
23802;SDS011;12082;51.786;6.018;2023-05-10T10:55:11;71.17;;;42.90;;
23802;SDS011;12082;51.786;6.018;2023-05-10T11:02:52;72.13;;;39.87;;
23802;SDS011;12082;51.786;6.018;2023-05-10T11:08:06;65.43;;;41.43;;
23802;SDS011;12082;51.786;6.018;2023-05-10T11:10:52;65.93;;;45.60;;
23802;SDS011;12082;51.786;6.018;2023-05-10T11:14:06;66.07;;;51.13;;
23802;SDS011;12082;51.786;6.018;2023-05-10T11:21:25;55.23;;;49.33;;
23802;SDS011;12082;51.786;6.018;2023-05-10T11:23:57;57.77;;;49.57;;
23802;SDS011;12082;51.786;6.018;2023-05-10T11:26:31;49.97;;;44.87;;
23802;SDS011;12082;51.786;6.018;2023-05-10T11:28:58;44.47;;;38.37;;
23802;SDS011;12082;51.786;6.018;2023-05-10T11:31:25;42.53;;;37.93;;
23802;SDS011;12082;51.786;6.018;2023-05-10T11:33:55;41.20;;;37.20;;
23802;SDS011;12082;51.786;6.018;2023-05-10T11:36:25;41.73;;;37.33;;
23802;SDS011;12082;51.786;6.018;2023-05-10T11:38:52;43.77;;;37.27;;
23802;SDS011;12082;51.786;6.018;2023-05-10T11:41:19;41.27;;;37.10;;
23802;SDS011;12082;51.786;6.018;2023-05-10T11:43:51;39.53;;;35.43;;
23802;SDS011;12082;51.786;6.018;2023-05-10T11:46:19;38.97;;;35.00;;
23802;SDS011;12082;51.786;6.018;2023-05-10T11:48:46;38.63;;;34.70;;
23802;SDS011;12082;51.786;6.018;2023-05-10T11:51:35;39.90;;;36.20;;
23802;SDS011;12082;51.786;6.018;2023-05-10T11:54:02;43.57;;;38.97;;
23802;SDS011;12082;51.786;6.018;2023-05-10T11:56:32;38.13;;;34.43;;
23802;SDS011;12082;51.786;6.018;2023-05-10T11:58:58;43.83;;;39.43;;
23802;SDS011;12082;51.786;6.018;2023-05-10T12:01:26;43.37;;;39.47;;
23802;SDS011;12082;51.786;6.018;2023-05-10T12:03:53;40.50;;;36.73;;
23802;SDS011;12082;51.786;6.018;2023-05-10T12:06:25;42.70;;;38.70;;
23802;SDS011;12082;51.786;6.018;2023-05-10T12:08:52;42.57;;;38.63;;
23802;SDS011;12082;51.786;6.018;2023-05-10T12:11:18;49.23;;;44.77;;
23802;SDS011;12082;51.786;6.018;2023-05-10T12:13:45;49.47;;;45.50;;
23802;SDS011;12082;51.786;6.018;2023-05-10T12:16:12;42.43;;;38.83;;
23802;SDS011;12082;51.786;6.018;2023-05-10T12:18:48;38.97;;;35.37;;
23802;SDS011;12082;51.786;6.018;2023-05-10T12:21:16;41.70;;;38.47;;
23802;SDS011;12082;51.786;6.018;2023-05-10T12:23:42;41.80;;;38.50;;
23802;SDS011;12082;51.786;6.018;2023-05-10T12:26:10;42.13;;;38.77;;
23802;SDS011;12082;51.786;6.018;2023-05-10T12:28:36;42.80;;;39.47;;
23802;SDS011;12082;51.786;6.018;2023-05-10T12:31:02;45.77;;;42.10;;
23802;SDS011;12082;51.786;6.018;2023-05-10T12:33:35;42.37;;;39.10;;
23802;SDS011;12082;51.786;6.018;2023-05-10T12:36:08;42.20;;;39.00;;
23802;SDS011;12082;51.786;6.018;2023-05-10T12:38:38;43.13;;;39.97;;
23802;SDS011;12082;51.786;6.018;2023-05-10T12:41:11;36.43;;;33.70;;
23802;SDS011;12082;51.786;6.018;2023-05-10T12:43:38;41.70;;;38.33;;
23802;SDS011;12082;51.786;6.018;2023-05-10T12:46:08;36.77;;;34.00;;
23802;SDS011;12082;51.786;6.018;2023-05-10T12:48:38;37.23;;;34.43;;
23802;SDS011;12082;51.786;6.018;2023-05-10T12:51:05;39.87;;;36.63;;
23802;SDS011;12082;51.786;6.018;2023-05-10T12:53:34;37.57;;;34.70;;
23802;SDS011;12082;51.786;6.018;2023-05-10T12:56:01;35.67;;;33.07;;
23802;SDS011;12082;51.786;6.018;2023-05-10T12:58:26;36.27;;;33.73;;
23802;SDS011;12082;51.786;6.018;2023-05-10T13:00:52;33.70;;;31.03;;
23802;SDS011;12082;51.786;6.018;2023-05-10T13:03:18;39.03;;;36.23;;
23802;SDS011;12082;51.786;6.018;2023-05-10T13:05:44;39.73;;;36.77;;
23802;SDS011;12082;51.786;6.018;2023-05-10T13:08:09;41.87;;;38.63;;
23802;SDS011;12082;51.786;6.018;2023-05-10T13:10:35;43.17;;;40.07;;
23802;SDS011;12082;51.786;6.018;2023-05-10T13:13:00;40.57;;;37.57;;
23802;SDS011;12082;51.786;6.018;2023-05-10T13:15:26;37.50;;;34.70;;
23802;SDS011;12082;51.786;6.018;2023-05-10T13:17:52;34.10;;;31.40;;
23802;SDS011;12082;51.786;6.018;2023-05-10T13:20:19;34.73;;;31.80;;
23802;SDS011;12082;51.786;6.018;2023-05-10T13:22:44;29.23;;;27.07;;
23802;SDS011;12082;51.786;6.018;2023-05-10T13:25:10;29.07;;;26.47;;
23802;SDS011;12082;51.786;6.018;2023-05-10T13:27:37;29.80;;;27.30;;
23802;SDS011;12082;51.786;6.018;2023-05-10T13:30:06;27.80;;;25.63;;
23802;SDS011;12082;51.786;6.018;2023-05-10T13:32:32;29.63;;;27.00;;
23802;SDS011;12082;51.786;6.018;2023-05-10T13:34:58;30.73;;;27.70;;
23802;SDS011;12082;51.786;6.018;2023-05-10T13:37:24;27.90;;;25.73;;
23802;SDS011;12082;51.786;6.018;2023-05-10T13:39:49;26.53;;;24.27;;
23802;SDS011;12082;51.786;6.018;2023-05-10T13:42:15;28.13;;;25.67;;
23802;SDS011;12082;51.786;6.018;2023-05-10T13:44:40;25.60;;;23.43;;
23802;SDS011;12082;51.786;6.018;2023-05-10T13:47:06;24.33;;;22.00;;
23802;SDS011;12082;51.786;6.018;2023-05-10T13:49:31;25.97;;;23.57;;
23802;SDS011;12082;51.786;6.018;2023-05-10T13:51:58;27.43;;;24.73;;
23802;SDS011;12082;51.786;6.018;2023-05-10T13:54:25;25.83;;;23.43;;
23802;SDS011;12082;51.786;6.018;2023-05-10T13:56:54;24.83;;;22.67;;
23802;SDS011;12082;51.786;6.018;2023-05-10T13:59:19;23.90;;;21.63;;
23802;SDS011;12082;51.786;6.018;2023-05-10T14:01:45;24.53;;;21.93;;
23802;SDS011;12082;51.786;6.018;2023-05-10T14:04:10;24.27;;;21.67;;
23802;SDS011;12082;51.786;6.018;2023-05-10T14:06:36;22.83;;;20.47;;
23802;SDS011;12082;51.786;6.018;2023-05-10T14:09:02;20.43;;;18.50;;
23802;SDS011;12082;51.786;6.018;2023-05-10T14:11:28;24.70;;;19.23;;
23802;SDS011;12082;51.786;6.018;2023-05-10T14:13:54;21.90;;;19.63;;
23802;SDS011;12082;51.786;6.018;2023-05-10T14:16:19;22.10;;;19.20;;
23802;SDS011;12082;51.786;6.018;2023-05-10T14:18:45;23.07;;;20.63;;
23802;SDS011;12082;51.786;6.018;2023-05-10T14:21:11;21.63;;;19.60;;
23802;SDS011;12082;51.786;6.018;2023-05-10T14:23:37;24.07;;;21.40;;
23802;SDS011;12082;51.786;6.018;2023-05-10T14:26:03;23.53;;;21.13;;
23802;SDS011;12082;51.786;6.018;2023-05-10T14:28:28;26.07;;;22.43;;
23802;SDS011;12082;51.786;6.018;2023-05-10T14:30:54;26.10;;;23.60;;
23802;SDS011;12082;51.786;6.018;2023-05-10T14:33:19;25.13;;;22.63;;
23802;SDS011;12082;51.786;6.018;2023-05-10T14:35:45;31.57;;;24.80;;
23802;SDS011;12082;51.786;6.018;2023-05-10T14:38:12;28.53;;;23.90;;
23802;SDS011;12082;51.786;6.018;2023-05-10T14:40:38;27.93;;;24.43;;
23802;SDS011;12082;51.786;6.018;2023-05-10T14:43:03;27.70;;;24.73;;
23802;SDS011;12082;51.786;6.018;2023-05-10T14:45:29;29.33;;;26.33;;
23802;SDS011;12082;51.786;6.018;2023-05-10T14:47:54;28.03;;;25.07;;
23802;SDS011;12082;51.786;6.018;2023-05-10T14:50:20;27.13;;;24.20;;
23802;SDS011;12082;51.786;6.018;2023-05-10T14:52:46;28.20;;;25.40;;
23802;SDS011;12082;51.786;6.018;2023-05-10T14:55:11;28.87;;;25.53;;
23802;SDS011;12082;51.786;6.018;2023-05-10T14:57:37;25.30;;;22.73;;
23802;SDS011;12082;51.786;6.018;2023-05-10T15:00:03;26.83;;;24.33;;
23802;SDS011;12082;51.786;6.018;2023-05-10T15:02:30;25.60;;;23.40;;